createdAt,value
2018-02-06T00:00:46.019Z,0.00
2018-02-06T00:01:45.974Z,0.00
2018-02-06T00:02:45.960Z,0.00
2018-02-06T00:03:45.887Z,0.00
2018-02-06T00:04:46.019Z,0.00
2018-02-06T00:05:45.803Z,0.00
2018-02-06T00:06:45.764Z,0.00
2018-02-06T00:07:45.807Z,0.00
2018-02-06T00:08:45.680Z,0.00
2018-02-06T00:09:45.833Z,0.00
2018-02-06T00:10:45.595Z,0.00
2018-02-06T00:11:45.555Z,0.00
2018-02-06T00:12:45.552Z,0.00
2018-02-06T00:13:45.471Z,0.00
2018-02-06T00:14:45.631Z,0.00
2018-02-06T00:15:45.430Z,0.00
2018-02-06T00:16:45.347Z,0.00
2018-02-06T00:17:45.364Z,0.00
2018-02-06T00:18:45.262Z,0.00
2018-02-06T00:19:45.449Z,0.00
2018-02-06T00:20:45.178Z,0.00
2018-02-06T00:21:45.139Z,0.00
2018-02-06T00:22:45.173Z,0.00
2018-02-06T00:23:45.060Z,0.00
2018-02-06T00:24:45.250Z,0.00
2018-02-06T00:25:44.975Z,0.00
2018-02-06T00:26:44.931Z,0.00
2018-02-06T00:27:45.021Z,0.00
2018-02-06T00:28:44.847Z,0.00
2018-02-06T00:29:45.056Z,0.00
2018-02-06T00:30:44.765Z,0.00
2018-02-06T00:31:44.728Z,0.00
2018-02-06T00:32:44.749Z,0.00
2018-02-06T00:33:44.643Z,0.00
2018-02-06T00:34:44.856Z,0.00
2018-02-06T00:35:44.561Z,0.00
2018-02-06T00:36:44.514Z,0.00
2018-02-06T00:37:44.512Z,0.00
2018-02-06T00:38:44.432Z,0.00
2018-02-06T00:39:44.573Z,0.00
2018-02-06T00:40:44.348Z,0.00
2018-02-06T00:41:44.306Z,0.00
2018-02-06T00:42:44.272Z,0.00
2018-02-06T00:43:44.230Z,0.00
2018-02-06T00:44:44.362Z,0.00
2018-02-06T00:45:44.140Z,0.00
2018-02-06T00:46:44.105Z,0.00
2018-02-06T00:47:44.128Z,0.00
2018-02-06T00:48:44.016Z,0.00
2018-02-06T00:49:44.161Z,0.00
2018-02-06T00:50:43.932Z,0.00
2018-02-06T00:51:43.889Z,0.00
2018-02-06T00:52:43.956Z,0.00
2018-02-06T00:53:43.815Z,0.00
2018-02-06T00:54:43.969Z,0.00
2018-02-06T00:55:43.728Z,0.00
2018-02-06T00:56:43.679Z,0.00
2018-02-06T00:57:43.684Z,0.00
2018-02-06T00:58:43.598Z,0.00
2018-02-06T00:59:43.772Z,0.00
2018-02-06T01:00:43.516Z,0.00
2018-02-06T01:01:43.479Z,0.00
2018-02-06T01:02:43.494Z,0.00
2018-02-06T01:03:43.391Z,0.00
2018-02-06T01:04:43.561Z,0.00
2018-02-06T01:05:43.314Z,0.00
2018-02-06T01:06:43.266Z,0.00
2018-02-06T01:07:43.340Z,0.00
2018-02-06T01:08:43.184Z,0.00
2018-02-06T01:09:43.390Z,0.00
2018-02-06T01:10:43.101Z,0.00
2018-02-06T01:11:43.059Z,0.00
2018-02-06T01:12:43.067Z,0.00
2018-02-06T01:13:42.976Z,0.00
2018-02-06T01:14:43.179Z,0.00
2018-02-06T01:15:42.895Z,0.00
2018-02-06T01:16:42.851Z,0.00
2018-02-06T01:17:42.851Z,0.00
2018-02-06T01:18:42.770Z,0.00
2018-02-06T01:19:42.987Z,0.00
2018-02-06T01:20:42.688Z,0.00
2018-02-06T01:21:42.651Z,0.00
2018-02-06T01:22:42.602Z,0.00
2018-02-06T01:23:42.561Z,0.00
2018-02-06T01:24:42.687Z,0.00
2018-02-06T01:25:42.479Z,0.00
2018-02-06T01:26:42.442Z,0.00
2018-02-06T01:27:42.433Z,0.00
2018-02-06T01:28:42.360Z,0.00
2018-02-06T01:29:42.502Z,0.00
2018-02-06T01:30:42.270Z,0.00
2018-02-06T01:31:42.233Z,0.00
2018-02-06T01:32:42.227Z,0.00
2018-02-06T01:33:42.147Z,0.00
2018-02-06T01:34:42.287Z,0.00
2018-02-06T01:35:42.063Z,0.00
2018-02-06T01:36:42.022Z,0.00
2018-02-06T01:37:42.020Z,0.00
2018-02-06T01:38:41.938Z,0.00
2018-02-06T01:39:42.099Z,0.00
2018-02-06T01:40:41.855Z,0.00
2018-02-06T01:41:41.814Z,0.00
2018-02-06T01:42:41.777Z,0.00
2018-02-06T01:43:41.732Z,0.00
2018-02-06T01:44:41.893Z,0.00
2018-02-06T01:45:41.648Z,0.00
2018-02-06T01:46:41.605Z,0.00
2018-02-06T01:47:41.564Z,0.00
2018-02-06T01:48:41.524Z,0.00
2018-02-06T01:49:41.708Z,0.00
2018-02-06T01:50:41.437Z,0.00
2018-02-06T01:51:41.401Z,0.00
2018-02-06T01:52:41.490Z,0.00
2018-02-06T01:53:41.316Z,0.00
2018-02-06T01:54:41.512Z,0.00
2018-02-06T01:55:41.231Z,0.00
2018-02-06T01:56:41.191Z,0.00
2018-02-06T01:57:41.215Z,0.00
2018-02-06T01:58:41.107Z,0.00
2018-02-06T01:59:41.318Z,0.00
2018-02-06T02:00:41.022Z,0.00
2018-02-06T02:01:40.982Z,0.00
2018-02-06T02:02:40.948Z,0.00
2018-02-06T02:03:40.899Z,0.00
2018-02-06T02:04:41.114Z,0.00
2018-02-06T02:05:40.812Z,0.00
2018-02-06T02:06:40.774Z,0.00
2018-02-06T02:07:40.769Z,0.00
2018-02-06T02:08:40.689Z,0.00
2018-02-06T02:09:40.817Z,0.00
2018-02-06T02:10:40.606Z,0.00
2018-02-06T02:11:40.575Z,0.00
2018-02-06T02:12:40.565Z,0.00
2018-02-06T02:13:40.487Z,0.00
2018-02-06T02:14:40.613Z,0.00
2018-02-06T02:15:40.399Z,0.00
2018-02-06T02:16:40.357Z,0.00
2018-02-06T02:17:40.428Z,0.00
2018-02-06T02:18:40.276Z,0.00
2018-02-06T02:19:40.422Z,0.00
2018-02-06T02:20:40.190Z,0.00
2018-02-06T02:21:40.148Z,0.00
2018-02-06T02:22:40.116Z,0.00
2018-02-06T02:23:40.064Z,0.00
2018-02-06T02:24:40.233Z,0.00
2018-02-06T02:25:39.982Z,0.00
2018-02-06T02:26:39.939Z,0.00
2018-02-06T02:27:39.983Z,0.00
2018-02-06T02:28:39.866Z,0.00
2018-02-06T02:29:40.042Z,0.00
2018-02-06T02:30:39.772Z,0.00
2018-02-06T02:31:39.732Z,0.00
2018-02-06T02:32:39.728Z,0.00
2018-02-06T02:33:39.647Z,0.00
2018-02-06T02:34:39.832Z,0.00
2018-02-06T02:35:39.564Z,0.00
2018-02-06T02:36:39.521Z,0.00
2018-02-06T02:37:39.516Z,0.00
2018-02-06T02:38:39.443Z,0.00
2018-02-06T02:39:39.635Z,0.00
2018-02-06T02:40:39.359Z,0.00
2018-02-06T02:41:39.314Z,0.00
2018-02-06T04:38:34.432Z,0.00
2018-02-06T04:39:34.627Z,0.00
2018-02-06T04:40:34.348Z,0.00
2018-02-06T04:41:34.306Z,0.00
2018-02-06T04:42:34.304Z,0.00
2018-02-06T04:43:34.223Z,0.00
2018-02-06T04:44:34.410Z,0.00
2018-02-06T04:45:34.139Z,0.00
2018-02-06T04:46:34.096Z,0.00
2018-02-06T04:47:34.155Z,0.00
2018-02-06T04:48:34.018Z,0.00
2018-02-06T04:49:34.226Z,0.00
2018-02-06T04:50:33.932Z,0.00
2018-02-06T04:51:33.888Z,0.00
2018-02-06T04:52:33.983Z,0.00
2018-02-06T04:53:33.808Z,0.00
2018-02-06T04:54:33.928Z,0.00
2018-02-06T04:55:33.719Z,0.00
2018-02-06T04:56:33.679Z,0.00
2018-02-06T04:57:33.678Z,0.00
2018-02-06T04:58:33.601Z,0.00
2018-02-06T04:59:33.713Z,0.00
2018-02-06T05:00:33.512Z,0.00
2018-02-06T05:01:33.470Z,0.00
2018-02-06T05:02:33.514Z,0.00
2018-02-06T05:03:33.385Z,0.00
2018-02-06T05:04:33.534Z,0.00
2018-02-06T05:05:33.307Z,0.00
2018-02-06T05:06:33.261Z,0.00
2018-02-06T05:07:33.263Z,0.00
2018-02-06T05:08:33.179Z,0.00
2018-02-06T05:09:33.343Z,0.00
2018-02-06T05:10:33.094Z,0.00
2018-02-06T05:11:33.053Z,0.00
2018-02-06T05:12:33.093Z,0.00
2018-02-06T05:13:32.968Z,0.00
2018-02-06T05:14:33.133Z,0.00
2018-02-06T05:15:32.883Z,0.00
2018-02-06T05:16:32.843Z,0.00
2018-02-06T05:17:32.922Z,0.00
2018-02-06T05:18:32.758Z,0.00
2018-02-06T05:19:32.936Z,0.00
2018-02-06T05:20:32.680Z,0.00
2018-02-06T05:21:32.635Z,0.00
2018-02-06T05:22:32.625Z,0.00
2018-02-06T05:23:32.550Z,0.00
2018-02-06T05:24:32.739Z,0.00
2018-02-06T05:25:32.475Z,0.00
2018-02-06T05:26:32.424Z,0.00
2018-02-06T05:27:32.479Z,0.00
2018-02-06T05:28:32.342Z,0.00
2018-02-06T05:29:32.562Z,0.00
2018-02-06T05:30:32.259Z,0.00
2018-02-06T05:31:32.222Z,0.00
2018-02-06T05:32:32.184Z,0.00
2018-02-06T05:33:32.135Z,0.00
2018-02-06T05:34:32.352Z,0.00
2018-02-06T05:35:32.050Z,0.00
2018-02-06T05:36:32.011Z,0.00
2018-02-06T05:37:32.029Z,0.00
2018-02-06T05:38:31.923Z,0.00
2018-02-06T05:39:32.059Z,0.00
2018-02-06T05:40:31.846Z,0.00
2018-02-06T05:41:31.803Z,0.00
2018-02-06T05:42:31.766Z,0.00
2018-02-06T05:43:31.719Z,0.00
2018-02-06T05:44:31.850Z,0.00
2018-02-06T05:45:31.638Z,0.00
2018-02-06T05:46:31.595Z,0.00
2018-02-06T05:47:31.688Z,0.00
2018-02-06T05:48:31.513Z,0.00
2018-02-06T05:49:31.654Z,0.00
2018-02-06T05:50:31.430Z,0.00
2018-02-06T05:51:31.393Z,0.00
2018-02-06T05:52:31.424Z,0.00
2018-02-06T05:53:31.307Z,0.00
2018-02-06T05:54:31.476Z,0.00
2018-02-06T05:55:31.223Z,0.00
2018-02-06T05:56:31.183Z,0.00
2018-02-06T05:57:31.242Z,0.00
2018-02-06T05:58:31.099Z,0.00
2018-02-06T05:59:31.273Z,0.00
2018-02-06T06:00:31.015Z,0.00
2018-02-06T06:01:30.975Z,8.00
2018-02-06T06:02:30.943Z,16.00
2018-02-06T06:03:30.903Z,16.00
2018-02-06T06:04:31.074Z,24.00
2018-02-06T06:05:30.814Z,24.00
2018-02-06T06:06:30.768Z,24.00
2018-02-06T06:07:30.767Z,24.00
2018-02-06T06:08:30.684Z,24.00
2018-02-06T06:09:30.868Z,24.00
2018-02-06T06:10:30.601Z,24.00
2018-02-06T06:11:30.562Z,24.00
2018-02-06T06:12:30.625Z,24.00
2018-02-06T06:13:30.479Z,24.00
2018-02-06T06:14:30.672Z,24.00
2018-02-06T06:15:30.395Z,24.00
2018-02-06T06:16:30.371Z,24.00
2018-02-06T06:17:30.353Z,24.00
2018-02-06T06:18:30.281Z,24.00
2018-02-06T06:19:30.241Z,24.00
2018-02-06T06:20:30.189Z,24.00
2018-02-06T06:21:30.373Z,28.00
2018-02-06T06:22:30.114Z,28.00
2018-02-06T06:23:30.066Z,28.00
2018-02-06T06:24:30.023Z,28.00
2018-02-06T06:25:29.988Z,28.00
2018-02-06T06:26:29.944Z,28.00
2018-02-06T06:27:29.903Z,28.00
2018-02-06T06:28:29.866Z,32.00
2018-02-06T06:29:29.817Z,32.00
2018-02-06T06:30:29.776Z,36.00
2018-02-06T06:31:29.737Z,36.00
2018-02-06T06:32:29.695Z,40.00
2018-02-06T06:33:29.652Z,40.00
2018-02-06T06:34:29.621Z,44.00
2018-02-06T06:35:29.567Z,44.00
2018-02-06T06:36:29.537Z,48.00
2018-02-06T06:37:29.493Z,52.00
2018-02-06T06:38:29.446Z,52.00
2018-02-06T06:39:29.406Z,56.00
2018-02-06T06:40:29.368Z,60.00
2018-02-06T06:41:29.324Z,64.00
2018-02-06T06:42:29.290Z,68.00
2018-02-06T06:43:29.241Z,72.00
2018-02-06T06:44:29.202Z,76.00
2018-02-06T06:45:29.165Z,80.00
2018-02-06T06:46:29.118Z,88.00
2018-02-06T06:47:29.842Z,92.00
2018-02-06T06:48:29.032Z,100.00
2018-02-06T06:49:28.995Z,104.00
2018-02-06T06:50:28.953Z,112.00
2018-02-06T06:51:28.918Z,124.00
2018-02-06T06:52:28.878Z,128.00
2018-02-06T06:53:29.449Z,136.00
2018-02-06T06:54:28.795Z,140.00
2018-02-06T06:55:28.754Z,156.00
2018-02-06T06:56:28.714Z,164.00
2018-02-06T06:57:28.673Z,172.00
2018-02-06T06:58:28.626Z,184.00
2018-02-06T06:59:28.587Z,192.00
2018-02-06T07:00:28.547Z,196.00
2018-02-06T07:01:28.509Z,212.00
2018-02-06T07:02:29.321Z,212.00
2018-02-06T07:03:28.422Z,216.00
2018-02-06T07:04:28.378Z,228.00
2018-02-06T07:05:28.343Z,236.00
2018-02-06T07:06:28.297Z,244.00
2018-02-06T07:07:28.249Z,252.00
2018-02-06T07:08:28.230Z,260.00
2018-02-06T07:09:28.177Z,260.00
2018-02-06T07:10:28.140Z,284.00
2018-02-06T07:11:28.101Z,288.00
2018-02-06T07:12:28.069Z,304.00
2018-02-06T07:13:28.029Z,308.00
2018-02-06T07:14:27.976Z,316.00
2018-02-06T07:15:27.932Z,312.00
2018-02-06T07:18:57.469Z,340.00
2018-02-06T07:19:57.404Z,336.00
2018-02-06T07:21:49.201Z,348.00
2018-02-06T07:22:49.154Z,376.00
2018-02-06T07:24:40.973Z,376.00
2018-02-06T07:25:40.904Z,376.00
2018-02-06T07:27:32.736Z,416.00
2018-02-06T07:28:32.664Z,436.00
2018-02-06T07:30:53.059Z,484.00
2018-02-06T07:31:24.413Z,504.00
2018-02-06T07:33:16.240Z,528.00
2018-02-06T07:34:16.173Z,504.00
2018-02-06T07:36:08.048Z,480.00
2018-02-06T07:37:07.997Z,524.00
2018-02-06T07:38:59.820Z,560.00
2018-02-06T07:39:59.752Z,592.00
2018-02-06T07:41:51.582Z,600.00
2018-02-06T07:42:51.503Z,584.00
2018-02-06T07:44:45.942Z,656.00
2018-02-06T07:45:44.254Z,704.00
2018-02-06T07:47:36.062Z,700.00
2018-02-06T07:48:36.013Z,676.00
2018-02-06T07:50:27.834Z,720.00
2018-02-06T07:51:27.767Z,740.00
2018-02-06T07:53:19.566Z,796.00
2018-02-06T07:54:19.518Z,844.00
2018-02-06T07:56:11.369Z,852.00
2018-02-06T07:57:11.290Z,884.00
2018-02-06T07:59:03.081Z,968.00
2018-02-06T08:00:03.064Z,960.00
2018-02-06T08:01:54.874Z,1012.00
2018-02-06T08:02:54.805Z,1084.00
2018-02-06T08:04:46.610Z,1144.00
2018-02-06T08:05:46.563Z,1096.00
2018-02-06T08:07:38.385Z,1092.00
2018-02-06T08:08:38.386Z,1076.00
2018-02-06T08:10:30.245Z,1180.00
2018-02-06T08:11:30.196Z,1200.00
2018-02-06T08:13:22.299Z,1192.00
2018-02-06T08:14:22.168Z,1172.00
2018-02-06T08:16:18.057Z,1268.00
2018-02-06T08:17:14.578Z,1260.00
2018-02-06T08:19:06.430Z,1364.00
2018-02-06T08:20:06.338Z,1388.00
2018-02-06T08:21:58.188Z,1344.00
2018-02-06T08:22:58.120Z,1328.00
2018-02-06T08:24:49.967Z,1456.00
2018-02-06T08:25:49.863Z,1520.00
2018-02-06T08:27:41.773Z,1584.00
2018-02-06T08:28:41.627Z,1612.00
2018-02-06T08:30:33.595Z,1612.00
2018-02-06T08:31:33.533Z,1656.00
2018-02-06T08:33:25.369Z,1860.00
2018-02-06T08:34:25.286Z,1872.00
2018-02-06T08:36:17.105Z,1800.00
2018-02-06T08:37:17.057Z,1792.00
2018-02-06T08:39:08.892Z,1984.00
2018-02-06T08:40:08.820Z,1984.00
2018-02-06T08:42:00.621Z,2048.00
2018-02-06T08:43:00.572Z,2104.00
2018-02-06T08:44:52.989Z,2248.00
2018-02-06T08:45:52.364Z,2432.00
2018-02-06T08:47:44.188Z,2444.00
2018-02-06T08:48:44.139Z,2432.00
2018-02-06T08:50:35.963Z,2396.00
2018-02-06T08:51:35.895Z,2304.00
2018-02-06T08:53:27.693Z,2456.00
2018-02-06T08:54:27.641Z,2572.00
2018-02-06T08:56:19.471Z,2652.00
2018-02-06T08:57:19.403Z,2792.00
2018-02-06T08:59:11.208Z,3020.00
2018-02-06T09:00:11.156Z,3068.00
2018-02-06T09:02:02.980Z,2916.00
2018-02-06T09:03:02.910Z,2896.00
2018-02-06T09:04:54.711Z,3172.00
2018-02-06T09:05:54.666Z,3116.00
2018-02-06T09:07:46.493Z,2760.00
2018-02-06T09:08:46.431Z,2892.00
2018-02-06T09:10:38.236Z,3324.00
2018-02-06T09:11:38.369Z,3976.00
2018-02-06T09:13:30.007Z,3788.00
2018-02-06T09:14:29.937Z,3644.00
2018-02-06T09:16:21.736Z,4828.00
2018-02-06T09:17:21.691Z,5264.00
2018-02-06T09:19:13.513Z,5728.00
2018-02-06T09:20:13.444Z,5440.00
2018-02-06T09:22:06.262Z,4940.00
2018-02-06T09:23:06.193Z,4728.00
2018-02-06T09:24:57.995Z,4744.00
2018-02-06T09:25:57.948Z,4456.00
2018-02-06T09:27:49.770Z,4200.00
2018-02-06T09:28:49.704Z,4420.00
2018-02-06T09:30:41.514Z,3464.00
2018-02-06T09:31:41.464Z,3556.00
2018-02-06T09:33:33.292Z,3060.00
2018-02-06T09:34:33.221Z,3268.00
2018-02-06T09:36:25.218Z,3356.00
2018-02-06T09:37:24.981Z,3464.00
2018-02-06T09:39:16.811Z,3896.00
2018-02-06T09:40:16.740Z,4204.00
2018-02-06T09:42:08.546Z,3824.00
2018-02-06T09:43:08.507Z,3744.00
2018-02-06T09:45:00.336Z,4132.00
2018-02-06T09:46:00.268Z,4272.00
2018-02-06T09:47:52.077Z,4288.00
2018-02-06T09:48:52.041Z,4308.00
2018-02-06T09:50:43.861Z,4084.00
2018-02-06T09:51:43.791Z,4212.00
2018-02-06T09:53:35.700Z,4180.00
2018-02-06T09:54:35.574Z,4040.00
2018-02-06T09:56:27.398Z,3744.00
2018-02-06T09:57:27.326Z,3348.00
2018-02-06T09:59:19.137Z,3316.00
2018-02-06T10:00:19.078Z,3424.00
2018-02-06T10:02:11.910Z,3700.00
2018-02-06T10:03:10.827Z,4028.00
2018-02-06T10:05:02.688Z,3840.00
2018-02-06T10:06:02.627Z,3960.00
2018-02-06T10:07:54.441Z,3736.00
2018-02-06T10:08:54.367Z,3532.00
2018-02-06T10:10:46.184Z,3668.00
2018-02-06T10:11:46.133Z,3588.00
2018-02-06T10:13:38.023Z,3568.00
2018-02-06T10:14:37.974Z,3496.00
2018-02-06T10:16:29.786Z,4292.00
2018-02-06T10:17:29.730Z,4332.00
2018-02-06T10:19:21.600Z,3624.00
2018-02-06T10:20:21.502Z,3292.00
2018-02-06T10:22:13.341Z,3280.00
2018-02-06T10:23:13.257Z,3484.00
2018-02-06T10:25:05.056Z,3568.00
2018-02-06T10:26:05.020Z,3656.00
2018-02-06T10:27:56.896Z,4244.00
2018-02-06T10:28:56.796Z,4504.00
2018-02-06T10:30:48.630Z,3812.00
2018-02-06T10:31:48.584Z,3880.00
2018-02-06T10:32:48.508Z,3684.00
2018-02-06T10:33:48.468Z,3492.00
2018-02-06T10:34:48.430Z,3116.00
2018-02-06T10:35:48.387Z,3128.00
2018-02-06T10:36:48.351Z,3300.00
2018-02-06T10:37:48.310Z,3308.00
2018-02-06T10:38:48.341Z,3188.00
2018-02-06T10:39:48.278Z,3188.00
2018-02-06T10:40:48.202Z,3512.00
2018-02-06T10:42:48.113Z,4432.00
2018-02-06T10:43:48.071Z,4028.00
2018-02-06T10:44:48.032Z,4036.00
2018-02-06T10:45:47.990Z,4700.00
2018-02-06T10:46:47.954Z,5272.00
2018-02-06T10:47:47.915Z,5396.00
2018-02-06T10:49:08.913Z,5456.00
2018-02-06T10:49:47.834Z,5244.00
2018-02-06T10:50:47.808Z,5204.00
2018-02-06T10:51:48.692Z,5220.00
2018-02-06T10:52:47.716Z,5436.00
2018-02-06T10:53:47.680Z,5744.00
2018-02-06T10:55:08.629Z,5676.00
2018-02-06T10:55:47.596Z,5476.00
2018-02-06T10:56:47.558Z,5204.00
2018-02-06T10:57:47.525Z,4864.00
2018-02-06T10:58:47.485Z,4640.00
2018-02-06T10:59:47.438Z,4200.00
2018-02-06T11:01:08.403Z,3464.00
2018-02-06T11:01:47.363Z,3044.00
2018-02-06T11:02:47.321Z,2864.00
2018-02-06T11:03:47.286Z,2816.00
2018-02-06T11:04:47.248Z,2752.00
2018-02-06T11:05:47.200Z,2768.00
2018-02-06T11:07:08.177Z,2708.00
2018-02-06T11:07:47.129Z,2668.00
2018-02-06T11:08:47.089Z,2524.00
2018-02-06T11:09:47.045Z,2500.00
2018-02-06T11:10:47.005Z,2500.00
2018-02-06T11:11:46.971Z,2552.00
2018-02-06T11:13:07.935Z,2608.00
2018-02-06T11:13:46.885Z,2640.00
2018-02-06T11:14:46.846Z,2656.00
2018-02-06T11:15:46.805Z,2720.00
2018-02-06T11:16:46.772Z,2744.00
2018-02-06T11:17:46.732Z,2660.00
2018-02-06T11:19:07.783Z,2604.00
2018-02-06T11:19:46.648Z,2676.00
2018-02-06T11:20:46.608Z,2748.00
2018-02-06T11:21:46.649Z,2924.00
2018-02-06T11:22:46.537Z,2972.00
2018-02-06T11:23:46.490Z,2960.00
2018-02-06T11:25:07.441Z,2972.00
2018-02-06T11:25:46.410Z,2872.00
2018-02-06T11:26:46.390Z,2840.00
2018-02-06T11:27:46.340Z,2872.00
2018-02-06T11:28:46.299Z,2832.00
2018-02-06T11:29:46.255Z,2932.00
2018-02-06T11:31:07.231Z,2740.00
2018-02-06T11:31:46.184Z,2788.00
2018-02-06T11:32:46.132Z,2828.00
2018-02-06T11:33:46.093Z,2624.00
2018-02-06T11:34:46.055Z,2680.00
2018-02-06T11:35:46.013Z,2808.00
2018-02-06T11:37:06.969Z,2748.00
2018-02-06T11:37:45.934Z,2636.00
2018-02-06T11:38:45.896Z,2668.00
2018-02-06T11:39:45.855Z,2660.00
2018-02-06T11:40:45.825Z,2664.00
2018-02-06T11:41:45.776Z,2680.00
2018-02-06T11:43:06.735Z,2732.00
2018-02-06T11:43:45.698Z,2788.00
2018-02-06T11:44:45.658Z,2836.00
2018-02-06T11:45:45.617Z,2852.00
2018-02-06T11:46:45.580Z,2900.00
2018-02-06T11:47:45.540Z,2896.00
2018-02-06T11:49:06.551Z,2844.00
2018-02-06T11:49:45.460Z,2780.00
2018-02-06T11:50:45.429Z,2764.00
2018-02-06T11:51:45.389Z,2748.00
2018-02-06T11:52:45.347Z,2720.00
2018-02-06T11:53:45.309Z,2636.00
2018-02-06T11:55:06.265Z,2580.00
2018-02-06T11:55:45.220Z,2592.00
2018-02-06T11:56:45.189Z,2532.00
2018-02-06T11:57:45.157Z,2508.00
2018-02-06T11:58:45.727Z,2516.00
2018-02-06T11:59:45.062Z,2500.00
2018-02-06T12:01:06.683Z,2424.00
2018-02-06T12:01:44.978Z,2384.00
2018-02-06T12:02:44.945Z,2364.00
2018-02-06T12:03:44.919Z,2348.00
2018-02-06T12:04:44.862Z,2288.00
2018-02-06T12:05:44.844Z,2248.00
2018-02-06T12:07:05.779Z,2212.00
2018-02-06T12:07:44.746Z,2192.00
2018-02-06T12:08:44.718Z,2180.00
2018-02-06T12:09:44.666Z,2180.00
2018-02-06T12:10:44.631Z,2180.00
2018-02-06T12:11:44.585Z,2176.00
2018-02-06T12:13:05.706Z,2184.00
2018-02-06T12:13:44.508Z,2168.00
2018-02-06T12:14:44.468Z,2132.00
2018-02-06T12:15:44.603Z,2128.00
2018-02-06T12:16:44.397Z,2132.00
2018-02-06T12:17:44.346Z,2128.00
2018-02-06T12:19:05.318Z,2088.00
2018-02-06T12:19:44.269Z,2088.00
2018-02-06T12:20:44.377Z,2068.00
2018-02-06T12:21:44.185Z,2052.00
2018-02-06T12:22:44.389Z,2076.00
2018-02-06T12:23:44.113Z,2064.00
2018-02-06T12:25:05.318Z,2064.00
2018-02-06T12:25:44.034Z,2044.00
2018-02-06T12:26:43.996Z,2020.00
2018-02-06T12:27:44.115Z,1996.00
2018-02-06T12:28:43.912Z,1964.00
2018-02-06T12:29:43.872Z,1932.00
2018-02-06T12:31:05.016Z,1904.00
2018-02-06T12:31:43.793Z,1876.00
2018-02-06T12:32:43.771Z,1864.00
2018-02-06T12:33:43.713Z,1840.00
2018-02-06T12:34:43.932Z,1828.00
2018-02-06T12:35:43.636Z,1824.00
2018-02-06T12:37:04.807Z,1828.00
2018-02-06T12:37:43.576Z,1824.00
2018-02-06T12:38:43.514Z,1860.00
2018-02-06T12:39:43.731Z,1876.00
2018-02-06T12:40:43.432Z,1844.00
2018-02-06T12:41:43.401Z,1832.00
2018-02-06T12:43:04.458Z,1828.00
2018-02-06T12:43:43.317Z,1804.00
2018-02-06T12:44:43.523Z,1808.00
2018-02-06T12:45:43.237Z,1804.00
2018-02-06T12:46:43.197Z,1852.00
2018-02-06T12:47:43.213Z,1876.00
2018-02-06T12:49:04.441Z,1856.00
2018-02-06T12:49:43.078Z,1860.00
2018-02-06T12:50:43.038Z,1848.00
2018-02-06T12:51:43.004Z,1832.00
2018-02-06T12:52:42.959Z,1796.00
2018-02-06T12:53:43.129Z,1812.00
2018-02-06T12:55:03.871Z,1856.00
2018-02-06T12:55:42.839Z,1896.00
2018-02-06T12:56:42.814Z,1936.00
2018-02-06T12:57:42.761Z,1960.00
2018-02-06T12:58:42.952Z,1976.00
2018-02-06T12:59:42.681Z,1936.00
2018-02-06T13:01:03.849Z,1964.00
2018-02-06T13:01:42.599Z,1964.00
2018-02-06T13:02:42.561Z,1996.00
2018-02-06T13:03:42.746Z,2020.00
2018-02-06T13:04:42.499Z,2040.00
2018-02-06T13:05:42.445Z,2036.00
2018-02-06T13:07:03.439Z,2008.00
2018-02-06T13:07:42.363Z,1976.00
2018-02-06T13:08:42.321Z,1956.00
2018-02-06T13:09:42.288Z,1940.00
2018-02-06T13:10:42.242Z,1900.00
2018-02-06T13:11:42.203Z,1868.00
2018-02-06T13:13:03.173Z,1832.00
2018-02-06T13:13:42.122Z,1812.00
2018-02-06T13:14:42.263Z,1796.00
2018-02-06T13:15:42.043Z,1784.00
2018-02-06T13:16:42.002Z,1776.00
2018-02-06T13:17:41.965Z,1768.00
2018-02-06T13:19:03.210Z,1756.00
2018-02-06T13:19:41.882Z,1732.00
2018-02-06T13:20:41.845Z,1712.00
2018-02-06T13:21:41.814Z,1668.00
2018-02-06T13:22:41.764Z,1612.00
2018-02-06T13:23:41.722Z,1568.00
2018-02-06T13:25:02.680Z,1512.00
2018-02-06T13:25:41.852Z,1472.00
2018-02-06T13:26:41.609Z,1488.00
2018-02-06T13:27:41.569Z,1500.00
2018-02-06T13:28:41.530Z,1496.00
2018-02-06T13:29:41.484Z,1488.00
2018-02-06T13:31:02.538Z,1492.00
2018-02-06T13:31:41.404Z,1484.00
2018-02-06T13:32:41.363Z,1480.00
2018-02-06T13:33:41.326Z,1476.00
2018-02-06T13:34:41.293Z,1472.00
2018-02-06T13:35:41.283Z,1484.00
2018-02-06T13:37:02.207Z,1480.00
2018-02-06T13:37:41.171Z,1488.00
2018-02-06T13:38:41.128Z,1508.00
2018-02-06T13:39:41.087Z,1524.00
2018-02-06T13:40:41.261Z,1532.00
2018-02-06T13:41:41.003Z,1544.00
2018-02-06T13:43:02.140Z,1552.00
2018-02-06T13:43:40.929Z,1552.00
2018-02-06T13:44:40.887Z,1536.00
2018-02-06T13:45:40.972Z,1516.00
2018-02-06T13:46:40.807Z,1488.00
2018-02-06T13:47:40.814Z,1476.00
2018-02-06T13:49:01.719Z,1460.00
2018-02-06T13:49:40.870Z,1448.00
2018-02-06T13:50:40.649Z,1432.00
2018-02-06T13:51:40.608Z,1416.00
2018-02-06T13:52:40.658Z,1400.00
2018-02-06T13:53:40.532Z,1384.00
2018-02-06T13:55:01.649Z,1368.00
2018-02-06T13:55:40.445Z,1356.00
2018-02-06T13:56:40.408Z,1348.00
2018-02-06T13:57:40.570Z,1340.00
2018-02-06T13:58:40.328Z,1328.00
2018-02-06T13:59:40.288Z,1312.00
2018-02-06T14:01:01.242Z,1308.00
2018-02-06T14:01:40.217Z,1300.00
2018-02-06T14:02:40.382Z,1276.00
2018-02-06T14:03:40.229Z,1256.00
2018-02-06T14:04:40.085Z,1248.00
2018-02-06T14:05:40.050Z,1256.00
2018-02-06T14:07:01.156Z,1244.00
2018-02-06T14:07:39.990Z,1240.00
2018-02-06T14:08:39.930Z,1236.00
2018-02-06T14:09:39.927Z,1216.00
2018-02-06T14:10:39.846Z,1212.00
2018-02-06T14:11:39.980Z,1228.00
2018-02-06T14:13:00.778Z,1228.00
2018-02-06T14:13:39.727Z,1228.00
2018-02-06T14:14:40.828Z,1228.00
2018-02-06T14:15:39.650Z,1220.00
2018-02-06T14:16:39.800Z,1208.00
2018-02-06T14:17:39.568Z,1188.00
2018-02-06T14:19:00.770Z,1184.00
2018-02-06T14:19:39.493Z,1184.00
2018-02-06T14:20:39.448Z,1180.00
2018-02-06T14:21:39.430Z,1176.00
2018-02-06T14:22:39.368Z,1176.00
2018-02-06T14:23:39.583Z,1176.00
2018-02-06T14:25:00.286Z,1180.00
2018-02-06T14:25:39.248Z,1180.00
2018-02-06T14:26:39.253Z,1172.00
2018-02-06T14:27:39.171Z,1176.00
2018-02-06T14:28:39.304Z,1188.00
2018-02-06T14:29:39.095Z,1196.00
2018-02-06T14:31:00.048Z,1200.00
2018-02-06T14:31:39.014Z,1196.00
2018-02-06T14:32:38.970Z,1192.00
2018-02-06T14:33:38.929Z,1184.00
2018-02-06T14:34:38.888Z,1176.00
2018-02-06T14:35:39.121Z,1168.00
2018-02-06T14:36:59.806Z,1156.00
2018-02-06T14:37:38.772Z,1148.00
2018-02-06T14:38:38.819Z,1128.00
2018-02-06T14:39:38.688Z,1112.00
2018-02-06T14:40:38.907Z,1108.00
2018-02-06T14:41:38.607Z,1096.00
2018-02-06T14:42:59.814Z,1072.00
2018-02-06T14:43:38.531Z,1064.00
2018-02-06T14:44:38.489Z,1056.00
2018-02-06T14:45:38.609Z,1048.00
2018-02-06T14:46:38.426Z,1048.00
2018-02-06T14:47:38.469Z,1048.00
2018-02-06T14:48:59.616Z,1048.00
2018-02-06T14:49:38.287Z,1052.00
2018-02-06T14:50:38.247Z,1052.00
2018-02-06T14:51:38.421Z,1052.00
2018-02-06T14:52:38.564Z,1048.00
2018-02-06T14:53:38.131Z,1048.00
2018-02-06T14:54:59.118Z,1044.00
2018-02-06T14:55:38.048Z,1040.00
2018-02-06T14:56:38.268Z,1032.00
2018-02-06T14:57:37.966Z,1028.00
2018-02-06T14:58:37.933Z,1016.00
2018-02-06T14:59:37.924Z,1008.00
2018-02-06T15:00:58.865Z,1000.00
2018-02-06T15:01:37.808Z,988.00
2018-02-06T15:02:37.765Z,980.00
2018-02-06T15:03:37.926Z,964.00
2018-02-06T15:04:37.687Z,960.00
2018-02-06T15:05:37.640Z,956.00
2018-02-06T15:06:58.664Z,952.00
2018-02-06T15:07:37.565Z,948.00
2018-02-06T15:08:37.725Z,952.00
2018-02-06T15:09:37.485Z,952.00
2018-02-06T15:10:37.445Z,956.00
2018-02-06T15:11:37.430Z,952.00
2018-02-06T15:12:58.516Z,948.00
2018-02-06T15:13:37.325Z,940.00
2018-02-06T15:14:37.283Z,928.00
2018-02-06T15:15:37.434Z,916.00
2018-02-06T15:16:37.204Z,900.00
2018-02-06T15:17:37.163Z,884.00
2018-02-06T15:18:58.255Z,868.00
2018-02-06T15:19:37.083Z,856.00
2018-02-06T15:20:37.217Z,844.00
2018-02-06T15:21:37.003Z,816.00
2018-02-06T15:22:36.962Z,788.00
2018-02-06T15:23:36.965Z,772.00
2018-02-06T15:24:58.134Z,752.00
2018-02-06T15:25:36.845Z,736.00
2018-02-06T15:26:36.802Z,716.00
2018-02-06T15:27:36.932Z,700.00
2018-02-06T15:28:36.724Z,688.00
2018-02-06T15:29:36.680Z,680.00
2018-02-06T15:30:57.662Z,676.00